Arkansas City, KS

9:03 AM CDT on August 29, 2014 (GMT -0500)
Strother | Change Station
CLOSE
Current Station
Airport
Location: Winfield,
Elevation: 1158 ft
Nearby Weather Stations

Elev 1158 ft 37.17 °N, 97.04 °W | Updated 9 minutes ago

Overcast
Overcast
71 °F
Feels Like 71 °F
N
0
Wind Variable Wind from North

Today
High -- | Low -- °F
--% Chance of Precip.
Yesterday
High -- | Low -- °F
Precip. -- in
6:56 AM 8:01 PM
Waxing Crescent, 14% visible
Pressure 29.90 in
Visibility 10.0 miles
Clouds Overcast 10000 ft
Dew Point 69 °F
Humidity 93%
Rainfall 0.01 in
Snow Depth Not available.
UV 1 out of 12
Pollen 9.20 out of 12
Air Quality Not available.
Flu Activity Not available.
METAR KWLD 291354Z AUTO 00000KT 10SM OVC100 22/21 A2992 RMK AO2 SLP123 T02170206

More Conditions Fewer Conditions

Pressure 29.90 in
Visibility 10.0 miles
Clouds Overcast 10000 ft
Dew Point 69 °F
Humidity 93%
Rainfall 0.01 in
Snow Depth Not available.
UV 1 out of 12
Pollen 9.20 out of 12
Air Quality Not available.
Flu Activity Not available.
METAR KWLD 291354Z AUTO 00000KT 10SM OVC100 22/21 A2992 RMK AO2 SLP123 T02170206

More Conditions Fewer Conditions

10-Day Weather Forecast

Almanac

Astronomy

Aug. 29, 2014 Rise Set
Actual Time 6:56 AM CDT 8:01 PM CDT
Civil Twilight 6:29 AM CDT 8:27 PM CDT
Nautical Twilight 5:57 AM CDT 8:59 PM CDT
Astronomical Twilight 5:24 AM CDT 9:32 PM CDT
Moon 10:40 AM CDT 10:06 PM CDT
Length of Visible Light 13h 57m
Length of Day
13h 04m
Tomorrow will be 2m 15s shorter.
Waxing Crescent, 14% of the Moon is Illuminated
Today
Waxing Crescent
Sep 2
First Quarter
Sep 8
Full
Sep 15
Last Quarter
Sep 24
New

Today's Extremes

State Highs State Lows

Community

WunderPhotos

Upload Photos

1,748,240 photos uploaded!

Nearby

Snow Depth

Station Depth Elevation
No new snow has been reported.

Earthquake Activity

City Distance Mag. Time & Date
Perry, Oklahoma 64 miles 3.0 4:52 AM CDT
2014-08-29
Stillwater, Oklahoma 68 miles 3.1 10:44 AM CDT
2014-08-27
Anthony, Kansas 43 miles 2.8 10:11 AM CDT
2014-08-27
Minimum magnitude displayed is 2.5.

Coastal Water Temperatures

Place Temperature
No Stations Reporting

Nearby Weather Stations